Time;durP1;ratioP1;P1;durP2;ratioP2;P2;SDS_P1;SDS_P2;PMS_P1;PMS_P2;Temp;Humidity;BMP_temperature;BMP_pressure;BME280_temperature;BME280_humidity;BME280_pressure;Samples;Min_cycle;Max_cycle;Signal;HPM_P1;HPM_P2
2021/04/25 00:01:29;;;;;;;7.53;2.42;;;5.60;99.90;;;;;;5027886;28;20519;-49
2021/04/25 00:03:54;;;;;;;12.13;2.63;;;5.60;99.90;;;;;;5027119;28;20021;-46
2021/04/25 00:06:20;;;;;;;7.22;2.33;;;5.60;99.90;;;;;;5028573;28;20034;-46
2021/04/25 00:08:45;;;;;;;8.90;2.78;;;5.50;99.90;;;;;;5026827;28;20040;-48
2021/04/25 00:11:11;;;;;;;5.80;3.13;;;5.50;99.90;;;;;;5028174;28;20116;-48
2021/04/25 00:13:36;;;;;;;9.35;2.75;;;5.50;99.90;;;;;;5028364;28;20025;-48
2021/04/25 00:16:02;;;;;;;12.65;2.80;;;5.50;99.90;;;;;;5027481;28;20029;-46
2021/04/25 00:18:28;;;;;;;13.65;2.83;;;5.40;99.90;;;;;;5027760;28;20033;-50
2021/04/25 00:20:53;;;;;;;6.28;2.33;;;5.30;99.90;;;;;;5028341;28;20041;-47
2021/04/25 00:23:19;;;;;;;4.57;2.70;;;5.40;99.90;;;;;;5025717;28;20026;-49
2021/04/25 00:25:44;;;;;;;5.80;1.95;;;5.30;99.90;;;;;;5027048;28;20021;-47
2021/04/25 00:28:11;;;;;;;6.65;1.90;;;5.20;99.90;;;;;;5027149;28;20040;-49
2021/04/25 00:30:37;;;;;;;13.38;3.80;;;5.20;99.90;;;;;;5027352;28;20021;-49
2021/04/25 00:33:04;;;;;;;7.47;2.72;;;5.10;99.90;;;;;;5027735;28;20423;-47
2021/04/25 00:35:29;;;;;;;6.10;2.90;;;5.10;99.90;;;;;;5028089;28;20043;-50
2021/04/25 00:37:55;;;;;;;8.75;2.53;;;5.10;99.90;;;;;;5027030;28;20033;-46
2021/04/25 00:40:21;;;;;;;8.40;2.78;;;5.10;99.90;;;;;;5027645;28;20029;-49
2021/04/25 00:42:47;;;;;;;9.77;3.20;;;5.10;99.90;;;;;;5027995;28;20522;-51
2021/04/25 00:45:15;;;;;;;7.90;3.20;;;5.00;99.90;;;;;;5029470;28;20065;-51
2021/04/25 00:47:43;;;;;;;5.82;2.38;;;5.00;99.90;;;;;;5030368;28;20454;-48
2021/04/25 00:50:09;;;;;;;8.68;2.90;;;4.90;99.90;;;;;;5031545;28;20077;-47
2021/04/25 00:52:38;;;;;;;10.35;3.00;;;4.80;99.90;;;;;;5031560;28;20022;-48
2021/04/25 00:55:06;;;;;;;8.80;3.47;;;4.80;99.90;;;;;;5031252;28;20037;-48
2021/04/25 00:57:32;;;;;;;9.50;3.45;;;4.80;99.90;;;;;;5030268;28;20021;-49
2021/04/25 00:59:57;;;;;;;9.15;3.40;;;4.70;99.90;;;;;;5031649;28;20024;-50
2021/04/25 01:02:24;;;;;;;7.28;3.25;;;4.70;99.90;;;;;;5031444;28;20031;-46
2021/04/25 01:04:50;;;;;;;8.07;3.40;;;4.70;99.90;;;;;;5030588;28;20029;-48
2021/04/25 01:07:15;;;;;;;9.90;3.55;;;4.70;99.90;;;;;;5031294;28;20500;-47
2021/04/25 01:09:41;;;;;;;6.70;3.33;;;4.60;99.90;;;;;;5030730;28;20056;-50
2021/04/25 01:12:07;;;;;;;7.55;2.90;;;4.50;99.90;;;;;;5030453;28;20534;-47
2021/04/25 01:14:33;;;;;;;9.32;3.50;;;4.50;99.90;;;;;;5030936;28;20139;-48
2021/04/25 01:16:58;;;;;;;10.50;3.67;;;4.50;99.90;;;;;;5029617;28;20045;-46
2021/04/25 01:19:24;;;;;;;6.80;3.33;;;4.50;99.90;;;;;;5029769;28;20032;-47
2021/04/25 01:21:49;;;;;;;13.25;4.20;;;4.50;99.90;;;;;;5031123;28;20034;-47
2021/04/25 01:24:15;;;;;;;12.82;3.95;;;4.40;99.90;;;;;;5030055;28;20087;-47
2021/04/25 01:26:40;;;;;;;12.88;3.80;;;4.40;99.90;;;;;;5030695;28;20167;-50
2021/04/25 01:29:06;;;;;;;14.07;3.75;;;4.30;99.90;;;;;;5029766;28;20037;-46
2021/04/25 01:31:31;;;;;;;8.35;3.15;;;4.30;99.90;;;;;;5030388;28;20057;-48
2021/04/25 01:33:57;;;;;;;11.38;3.80;;;4.30;99.90;;;;;;5030091;28;20033;-47
2021/04/25 01:36:23;;;;;;;20.80;4.63;;;4.30;99.90;;;;;;5030393;28;20450;-47
2021/04/25 01:38:49;;;;;;;11.05;3.42;;;4.20;99.90;;;;;;5029490;28;20395;-47
2021/04/25 01:41:14;;;;;;;8.50;4.18;;;4.20;99.90;;;;;;5030353;28;20029;-46
2021/04/25 01:43:40;;;;;;;15.98;4.93;;;4.10;99.90;;;;;;5030520;28;20045;-47
2021/04/25 01:46:05;;;;;;;11.18;4.10;;;4.10;99.90;;;;;;5029498;28;20510;-48
2021/04/25 01:48:31;;;;;;;11.38;4.10;;;4.00;99.90;;;;;;5030170;28;20028;-46
2021/04/25 01:50:56;;;;;;;11.77;3.85;;;3.90;99.90;;;;;;5030155;28;20063;-46
2021/04/25 01:53:22;;;;;;;18.20;3.70;;;3.90;99.90;;;;;;5029433;28;20017;-46
2021/04/25 01:55:47;;;;;;;11.02;4.30;;;3.90;99.90;;;;;;5030045;28;20028;-48
2021/04/25 01:58:13;;;;;;;8.27;3.83;;;3.80;99.90;;;;;;5029363;28;20075;-48
2021/04/25 02:00:45;;;;;;;7.65;4.13;;;3.90;99.90;;;;;;5029684;28;20087;-47
2021/04/25 02:03:13;;;;;;;11.65;4.65;;;3.90;99.90;;;;;;5029454;28;20065;-47
2021/04/25 02:05:38;;;;;;;9.07;3.90;;;3.80;99.90;;;;;;5029962;28;20076;-47
2021/04/25 02:08:06;;;;;;;15.80;4.30;;;3.80;99.90;;;;;;5029441;28;20053;-46
2021/04/25 02:10:33;;;;;;;10.00;4.25;;;3.90;99.90;;;;;;5029083;28;20041;-49
2021/04/25 02:12:59;;;;;;;18.00;6.18;;;3.80;99.90;;;;;;5029938;28;20018;-47
2021/04/25 02:15:26;;;;;;;17.40;3.95;;;3.80;99.90;;;;;;5030006;28;20039;-47
2021/04/25 02:17:52;;;;;;;9.43;4.10;;;3.80;99.90;;;;;;5028904;28;20491;-46
2021/04/25 02:20:19;;;;;;;10.20;4.40;;;3.70;99.90;;;;;;5028495;28;20038;-51
2021/04/25 02:22:45;;;;;;;10.60;5.18;;;3.60;99.90;;;;;;5029171;28;20029;-48
2021/04/25 02:25:13;;;;;;;10.02;3.97;;;3.60;99.90;;;;;;5029297;28;20518;-45
2021/04/25 02:27:38;;;;;;;13.25;4.75;;;3.60;99.90;;;;;;5029058;28;20479;-46
2021/04/25 02:30:07;;;;;;;18.60;4.63;;;3.60;99.90;;;;;;5028901;28;20048;-46
2021/04/25 02:32:33;;;;;;;12.88;4.72;;;3.50;99.90;;;;;;5029163;28;20061;-47
2021/04/25 02:34:58;;;;;;;15.82;4.70;;;3.50;99.90;;;;;;5029552;28;20053;-47
2021/04/25 02:37:23;;;;;;;16.63;5.68;;;3.50;99.90;;;;;;5028235;28;20545;-46
2021/04/25 02:39:49;;;;;;;16.75;5.63;;;3.50;99.90;;;;;;5029620;28;20029;-46
2021/04/25 02:42:14;;;;;;;11.98;5.30;;;3.40;99.90;;;;;;5028107;28;20108;-46
2021/04/25 02:44:40;;;;;;;9.10;4.55;;;3.40;99.90;;;;;;5028817;28;20029;-46
2021/04/25 02:47:05;;;;;;;11.30;4.05;;;3.40;99.90;;;;;;5023138;28;20026;-47
2021/04/25 02:49:31;;;;;;;13.65;4.55;;;3.40;99.90;;;;;;5009029;28;20043;-46
2021/04/25 02:51:57;;;;;;;12.52;5.15;;;3.30;99.90;;;;;;5009552;28;20305;-46
2021/04/25 02:54:22;;;;;;;14.15;4.88;;;3.30;99.90;;;;;;5025801;28;20032;-46
2021/04/25 02:56:48;;;;;;;18.65;5.13;;;3.30;99.90;;;;;;5029013;28;20029;-47
2021/04/25 02:59:14;;;;;;;12.23;5.38;;;3.30;99.90;;;;;;5028454;28;20026;-46
2021/04/25 03:01:39;;;;;;;17.85;5.75;;;3.30;99.90;;;;;;5028206;28;20029;-46
2021/04/25 03:04:05;;;;;;;16.95;5.57;;;3.30;99.90;;;;;;5029090;28;20067;-45
2021/04/25 03:06:30;;;;;;;13.95;5.10;;;3.10;99.90;;;;;;5027983;28;20021;-46
2021/04/25 03:08:56;;;;;;;14.57;5.15;;;3.10;99.90;;;;;;5027665;28;20087;-47
2021/04/25 03:11:21;;;;;;;14.23;5.40;;;3.00;99.90;;;;;;5028301;28;20060;-46
2021/04/25 03:13:47;;;;;;;20.40;6.85;;;3.00;99.90;;;;;;5027563;28;20064;-46
2021/04/25 03:16:12;;;;;;;17.92;5.45;;;3.00;99.90;;;;;;5028822;28;20076;-49
2021/04/25 03:18:38;;;;;;;12.40;4.90;;;3.00;99.90;;;;;;5027344;28;20037;-48
2021/04/25 03:21:03;;;;;;;16.13;6.50;;;3.00;99.90;;;;;;5027299;28;20053;-47
2021/04/25 03:23:29;;;;;;;10.55;4.85;;;3.00;99.90;;;;;;5027078;28;20025;-46
2021/04/25 03:25:54;;;;;;;13.75;5.20;;;2.90;99.90;;;;;;5027466;28;20034;-46
2021/04/25 03:28:20;;;;;;;18.27;6.03;;;2.90;99.90;;;;;;5026413;28;20503;-45
2021/04/25 03:30:46;;;;;;;18.30;6.57;;;2.90;99.90;;;;;;5027474;28;20061;-47
2021/04/25 03:33:11;;;;;;;18.23;5.32;;;2.90;99.90;;;;;;5027920;28;20025;-47
2021/04/25 03:35:37;;;;;;;12.43;4.75;;;2.80;99.90;;;;;;5027828;28;20082;-48
2021/04/25 03:38:03;;;;;;;14.00;5.03;;;2.80;99.90;;;;;;5025243;28;20029;-47
2021/04/25 03:40:29;;;;;;;12.38;5.05;;;2.70;99.90;;;;;;5027725;28;20171;-46
2021/04/25 03:42:54;;;;;;;16.27;5.50;;;2.70;99.90;;;;;;5027984;28;20124;-47
2021/04/25 03:45:20;;;;;;;19.23;6.60;;;2.70;99.90;;;;;;5027886;28;20437;-46
2021/04/25 03:47:49;;;;;;;12.40;5.10;;;2.70;99.90;;;;;;5022870;28;20014;-47
2021/04/25 03:50:17;;;;;;;21.25;5.43;;;2.70;99.90;;;;;;5028374;28;20115;-46
2021/04/25 03:52:46;;;;;;;19.55;6.35;;;2.80;99.90;;;;;;5028422;28;20077;-46
2021/04/25 03:55:14;;;;;;;15.15;5.53;;;2.70;99.90;;;;;;5028258;28;20026;-46
2021/04/25 03:57:40;;;;;;;14.23;4.70;;;2.70;99.90;;;;;;5027855;28;20477;-46
2021/04/25 04:00:08;;;;;;;12.63;5.20;;;2.70;99.90;;;;;;5028453;28;20021;-46
2021/04/25 04:02:34;;;;;;;9.63;5.00;;;2.60;99.90;;;;;;5027702;28;20061;-47
2021/04/25 04:05:00;;;;;;;25.75;5.93;;;2.70;99.90;;;;;;5028230;28;20049;-46
2021/04/25 04:07:25;;;;;;;16.27;5.78;;;2.60;99.90;;;;;;5013575;28;20539;-45
2021/04/25 04:09:52;;;;;;;16.95;6.15;;;2.60;99.90;;;;;;5008653;28;20052;-46
2021/04/25 04:12:17;;;;;;;9.10;4.93;;;2.60;99.90;;;;;;5010243;28;20232;-47
2021/04/25 04:14:43;;;;;;;16.30;5.60;;;2.50;99.90;;;;;;5024670;28;20125;-46
2021/04/25 04:17:08;;;;;;;12.30;5.40;;;2.50;99.90;;;;;;5027612;28;20025;-46
2021/04/25 04:19:34;;;;;;;13.43;5.63;;;2.50;99.90;;;;;;5027095;28;20025;-48
2021/04/25 04:22:00;;;;;;;19.35;5.25;;;2.50;99.90;;;;;;5030557;28;20510;-46
2021/04/25 04:24:26;;;;;;;17.75;5.82;;;2.60;99.90;;;;;;5031546;28;20021;-47
2021/04/25 04:26:51;;;;;;;11.52;5.88;;;2.60;99.90;;;;;;5030510;28;20038;-48
2021/04/25 04:29:17;;;;;;;15.38;5.57;;;2.60;99.90;;;;;;5030681;28;20036;-47
2021/04/25 04:31:42;;;;;;;13.73;5.50;;;2.60;99.90;;;;;;5030839;28;20403;-47
2021/04/25 04:34:08;;;;;;;16.27;7.05;;;2.60;99.90;;;;;;5030894;28;20033;-46
2021/04/25 04:36:34;;;;;;;12.90;5.90;;;2.60;99.90;;;;;;5031271;28;20026;-47
2021/04/25 04:39:00;;;;;;;13.93;6.00;;;2.60;99.90;;;;;;5028903;28;20029;-47
2021/04/25 04:41:25;;;;;;;10.88;5.35;;;2.60;99.90;;;;;;5030490;28;20034;-46
2021/04/25 04:43:51;;;;;;;11.65;5.65;;;2.60;99.90;;;;;;5031016;28;20044;-47
2021/04/25 04:46:16;;;;;;;16.88;5.90;;;2.50;99.90;;;;;;5030410;28;20044;-47
2021/04/25 04:48:42;;;;;;;15.75;6.15;;;2.50;99.90;;;;;;5030338;28;20614;-47
2021/04/25 04:51:07;;;;;;;11.05;5.20;;;2.60;99.90;;;;;;5031154;28;20487;-47
2021/04/25 04:53:33;;;;;;;12.95;5.22;;;2.60;99.90;;;;;;5027927;28;20101;-49
2021/04/25 04:55:58;;;;;;;17.08;5.82;;;2.50;99.90;;;;;;5031470;28;20155;-47
2021/04/25 04:58:24;;;;;;;20.15;5.18;;;2.50;99.90;;;;;;5029624;28;20030;-47
2021/04/25 05:00:50;;;;;;;21.38;5.88;;;2.40;99.90;;;;;;5030872;28;20289;-48
2021/04/25 05:03:16;;;;;;;11.02;5.75;;;2.50;99.90;;;;;;5030039;28;20033;-47
2021/04/25 05:05:42;;;;;;;16.52;5.13;;;2.50;99.90;;;;;;5030705;28;20028;-47
2021/04/25 05:08:07;;;;;;;12.15;5.53;;;2.50;99.90;;;;;;5026331;28;20021;-48
2021/04/25 05:10:33;;;;;;;14.85;5.15;;;2.60;99.90;;;;;;5029645;28;20025;-47
2021/04/25 05:12:58;;;;;;;18.50;6.35;;;2.60;99.90;;;;;;5029798;28;20355;-47
2021/04/25 05:15:25;;;;;;;16.55;5.60;;;2.60;99.90;;;;;;5029997;28;20029;-47
2021/04/25 05:17:50;;;;;;;16.67;6.63;;;2.70;99.90;;;;;;5028779;28;20232;-47
2021/04/25 05:20:16;;;;;;;15.90;4.97;;;2.70;99.90;;;;;;5028908;28;20546;-47
2021/04/25 05:22:41;;;;;;;14.48;4.85;;;2.70;99.90;;;;;;5029600;28;20168;-47
2021/04/25 05:25:08;;;;;;;17.75;5.18;;;2.70;99.90;;;;;;5030320;28;20025;-47
2021/04/25 05:27:33;;;;;;;9.80;5.20;;;2.70;99.90;;;;;;5026414;28;20022;-47
2021/04/25 05:29:59;;;;;;;12.30;4.88;;;2.80;99.90;;;;;;5030237;28;20041;-48
2021/04/25 05:32:24;;;;;;;8.63;4.45;;;2.90;99.90;;;;;;5029848;28;20028;-47
2021/04/25 05:34:50;;;;;;;12.00;4.90;;;2.90;99.90;;;;;;5029404;28;20029;-48
2021/04/25 05:37:15;;;;;;;13.60;5.45;;;2.90;99.90;;;;;;5029794;28;20101;-48
2021/04/25 05:39:41;;;;;;;13.52;5.03;;;3.00;99.90;;;;;;5026100;28;20022;-47
2021/04/25 05:42:06;;;;;;;15.65;5.07;;;3.00;99.90;;;;;;5030247;28;20610;-49
2021/04/25 05:44:32;;;;;;;11.60;4.53;;;3.10;99.90;;;;;;5030153;28;20029;-48
2021/04/25 05:46:58;;;;;;;13.48;4.85;;;3.10;99.90;;;;;;5029181;28;20022;-48
2021/04/25 05:49:24;;;;;;;16.50;6.72;;;3.00;99.90;;;;;;5028341;28;20014;-48
2021/04/25 05:51:49;;;;;;;11.43;4.70;;;3.20;99.90;;;;;;5029467;28;20037;-49
2021/04/25 05:54:15;;;;;;;17.15;4.50;;;3.30;99.90;;;;;;5030023;28;20014;-47
2021/04/25 05:56:41;;;;;;;14.40;4.00;;;3.30;99.90;;;;;;5029887;28;20076;-47
2021/04/25 05:59:07;;;;;;;18.58;4.97;;;3.40;99.90;;;;;;5025914;28;20060;-48
2021/04/25 06:01:32;;;;;;;11.82;4.60;;;3.50;99.90;;;;;;5029453;28;20053;-47
2021/04/25 06:03:58;;;;;;;16.20;4.22;;;3.50;99.90;;;;;;5026873;28;20032;-46
2021/04/25 06:06:24;;;;;;;10.73;4.70;;;3.70;99.90;;;;;;5029266;28;20029;-47
2021/04/25 06:08:49;;;;;;;13.38;4.40;;;3.80;99.90;;;;;;5029518;28;20022;-47
2021/04/25 06:11:15;;;;;;;11.95;4.78;;;3.80;99.90;;;;;;5029584;28;20021;-48
2021/04/25 06:13:40;;;;;;;13.82;4.30;;;3.90;99.90;;;;;;5029388;28;20066;-47
2021/04/25 06:16:06;;;;;;;14.18;4.55;;;4.10;99.90;;;;;;5026310;28;20018;-46
2021/04/25 06:18:31;;;;;;;12.35;4.03;;;4.30;99.90;;;;;;5028332;28;20387;-47
2021/04/25 06:20:57;;;;;;;14.35;4.43;;;4.40;99.90;;;;;;5029176;28;20026;-47
2021/04/25 06:23:23;;;;;;;12.93;4.88;;;4.60;99.90;;;;;;5029307;28;20586;-47
2021/04/25 06:25:49;;;;;;;14.85;4.47;;;4.70;99.90;;;;;;5027841;28;20025;-45
2021/04/25 06:28:15;;;;;;;11.10;4.28;;;4.80;99.90;;;;;;5028939;28;20090;-45
2021/04/25 06:30:41;;;;;;;15.02;4.28;;;4.90;99.90;;;;;;5022786;28;20068;-47
2021/04/25 06:33:07;;;;;;;7.97;3.92;;;4.90;99.90;;;;;;5028356;28;20364;-46
2021/04/25 06:35:34;;;;;;;13.02;4.60;;;5.10;99.90;;;;;;5028668;28;20025;-45
2021/04/25 06:37:59;;;;;;;16.55;5.22;;;5.20;99.90;;;;;;5027596;28;20022;-45
2021/04/25 06:40:25;;;;;;;8.40;4.05;;;5.10;99.90;;;;;;5028356;28;20068;-44
2021/04/25 06:42:52;;;;;;;11.43;4.07;;;5.10;99.90;;;;;;5027950;28;20025;-44
2021/04/25 06:45:21;;;;;;;8.82;4.15;;;5.30;99.90;;;;;;5028069;28;20020;-44
2021/04/25 06:47:48;;;;;;;10.88;4.20;;;5.50;99.90;;;;;;5028231;28;20021;-44
2021/04/25 06:50:14;;;;;;;13.88;3.92;;;5.70;99.90;;;;;;5027023;28;20503;-44
2021/04/25 06:52:42;;;;;;;16.23;4.38;;;5.90;99.90;;;;;;5028338;28;20033;-44
2021/04/25 06:55:09;;;;;;;9.07;3.70;;;6.10;99.90;;;;;;5029700;28;20018;-45
2021/04/25 06:57:35;;;;;;;12.02;4.38;;;6.10;99.90;;;;;;5027925;28;20407;-43
2021/04/25 07:00:01;;;;;;;15.73;3.95;;;6.40;99.90;;;;;;5029227;28;20025;-44
2021/04/25 07:02:27;;;;;;;11.40;4.20;;;6.60;99.90;;;;;;5029434;28;20033;-44
2021/04/25 07:04:53;;;;;;;6.90;3.33;;;6.70;99.90;;;;;;5028006;28;20010;-44
2021/04/25 07:07:18;;;;;;;9.55;4.07;;;6.90;99.90;;;;;;5028653;28;20383;-44
2021/04/25 07:09:44;;;;;;;11.45;3.95;;;7.00;99.90;;;;;;5028667;28;20087;-44
2021/04/25 07:12:10;;;;;;;10.35;4.03;;;7.10;99.90;;;;;;5029053;28;20036;-44
2021/04/25 07:14:35;;;;;;;8.32;3.50;;;7.00;99.90;;;;;;5028833;28;20036;-45
2021/04/25 07:17:01;;;;;;;8.43;3.45;;;7.00;99.90;;;;;;5027971;28;20116;-44
2021/04/25 07:19:26;;;;;;;12.60;4.18;;;6.90;99.90;;;;;;5026828;28;20391;-45
2021/04/25 07:21:53;;;;;;;12.65;3.97;;;7.00;99.90;;;;;;5029074;28;20043;-45
2021/04/25 07:24:18;;;;;;;5.85;3.00;;;7.20;99.90;;;;;;5027895;28;20112;-44
2021/04/25 07:26:44;;;;;;;10.25;3.05;;;7.20;99.80;;;;;;5028600;28;20445;-45
2021/04/25 07:29:11;;;;;;;8.05;4.03;;;7.20;99.80;;;;;;5026757;28;20029;-44
2021/04/25 07:31:36;;;;;;;11.50;3.70;;;7.30;99.40;;;;;;5028153;28;20025;-45
2021/04/25 07:34:02;;;;;;;15.20;3.65;;;7.40;99.00;;;;;;5028621;28;20076;-45
2021/04/25 07:36:27;;;;;;;6.72;2.45;;;7.40;98.10;;;;;;5028479;28;20392;-44
2021/04/25 07:38:53;;;;;;;8.77;2.65;;;7.70;99.10;;;;;;5026466;28;20034;-46
2021/04/25 07:41:20;;;;;;;6.38;2.65;;;7.90;97.80;;;;;;5027830;28;20033;-46
2021/04/25 07:43:45;;;;;;;8.63;3.25;;;7.80;96.80;;;;;;5028584;28;20026;-46
2021/04/25 07:46:11;;;;;;;7.57;2.65;;;7.90;96.30;;;;;;5028815;28;20029;-46
2021/04/25 07:48:37;;;;;;;7.15;2.50;;;7.80;95.90;;;;;;5026926;28;20476;-46
2021/04/25 07:51:03;;;;;;;3.78;2.20;;;7.80;94.50;;;;;;5027120;28;20026;-45
2021/04/25 07:53:29;;;;;;;6.13;2.35;;;7.80;94.00;;;;;;5028352;28;20384;-46
2021/04/25 07:55:54;;;;;;;9.18;2.70;;;7.70;94.10;;;;;;5031832;28;20028;-45
2021/04/25 07:58:20;;;;;;;6.15;2.30;;;7.80;94.10;;;;;;5031772;28;20487;-45
2021/04/25 08:00:45;;;;;;;8.68;2.65;;;7.90;92.80;;;;;;5031269;28;20029;-46
2021/04/25 08:03:11;;;;;;;5.70;2.08;;;8.00;92.70;;;;;;5032515;28;20021;-46
2021/04/25 08:05:36;;;;;;;5.30;2.58;;;8.40;92.60;;;;;;5033856;28;20068;-46
2021/04/25 08:08:02;;;;;;;7.55;2.25;;;9.00;88.50;;;;;;5033513;28;20018;-48
2021/04/25 08:10:28;;;;;;;7.05;2.15;;;9.90;84.40;;;;;;5033730;28;20017;-47
2021/04/25 08:12:54;;;;;;;3.20;1.98;;;11.10;74.20;;;;;;5033816;28;20032;-47
2021/04/25 08:15:22;;;;;;;6.80;2.53;;;12.00;68.50;;;;;;5033363;28;20467;-47
2021/04/25 08:17:48;;;;;;;5.03;1.60;;;13.40;61.20;;;;;;5032802;28;20478;-46
2021/04/25 08:20:14;;;;;;;8.05;2.63;;;15.00;54.80;;;;;;5033804;28;20034;-47
2021/04/25 08:22:39;;;;;;;7.03;2.42;;;15.70;49.70;;;;;;5032618;28;20040;-46
2021/04/25 08:25:06;;;;;;;3.80;2.13;;;15.90;50.60;;;;;;5032041;28;20071;-48
2021/04/25 08:27:31;;;;;;;9.10;2.80;;;15.60;50.20;;;;;;5030050;28;20028;-48
2021/04/25 08:29:57;;;;;;;6.10;2.85;;;15.00;50.60;;;;;;5031739;28;20029;-46
2021/04/25 08:32:22;;;;;;;4.80;2.20;;;14.00;52.90;;;;;;5032221;28;20025;-45
2021/04/25 08:34:48;;;;;;;7.00;2.05;;;13.70;53.50;;;;;;5032221;28;20081;-45
2021/04/25 08:37:13;;;;;;;6.85;1.95;;;14.10;54.60;;;;;;5032606;28;20026;-47
2021/04/25 08:39:39;;;;;;;4.95;1.75;;;14.50;53.60;;;;;;5031273;28;20038;-46
2021/04/25 08:42:04;;;;;;;6.00;1.83;;;15.80;51.40;;;;;;5032100;28;20033;-46
2021/04/25 08:44:30;;;;;;;3.38;1.95;;;16.70;49.40;;;;;;5032840;28;20041;-49
2021/04/25 08:46:57;;;;;;;7.65;2.20;;;17.50;46.80;;;;;;5032286;28;20747;-47
2021/04/25 08:49:26;;;;;;;4.75;1.98;;;17.50;44.00;;;;;;5031214;28;20025;-47
2021/04/25 08:51:53;;;;;;;5.03;2.03;;;16.70;48.50;;;;;;5032522;28;20025;-46
2021/04/25 08:54:23;;;;;;;4.90;1.95;;;15.80;48.20;;;;;;5031598;28;20017;-46
2021/04/25 08:56:49;;;;;;;5.03;1.80;;;15.80;47.80;;;;;;5032410;28;20045;-47
2021/04/25 08:59:15;;;;;;;8.85;2.97;;;16.50;49.80;;;;;;5031540;28;20076;-49
2021/04/25 09:01:41;;;;;;;4.53;2.03;;;17.20;46.80;;;;;;5030776;28;20029;-47
2021/04/25 09:04:06;;;;;;;6.65;2.72;;;16.90;47.50;;;;;;5032448;28;20029;-47
2021/04/25 09:06:32;;;;;;;4.68;2.15;;;16.10;48.50;;;;;;5030370;28;20025;-49
2021/04/25 09:09:03;;;;;;;6.22;2.45;;;16.00;50.80;;;;;;5031160;28;20013;-47
2021/04/25 09:11:39;;;;;;;9.27;1.90;;;16.30;49.70;;;;;;5032131;28;20035;-48
2021/04/25 09:14:18;;;;;;;6.85;2.08;;;18.00;47.60;;;;;;5032214;28;20060;-49
2021/04/25 09:16:54;;;;;;;5.53;2.38;;;17.70;46.70;;;;;;5027905;28;20017;-47
2021/04/25 09:19:20;;;;;;;5.95;2.50;;;17.00;47.50;;;;;;5030137;28;20083;-47
2021/04/25 09:22:00;;;;;;;4.88;2.40;;;16.10;46.60;;;;;;5029605;28;20037;-47
2021/04/25 09:24:31;;;;;;;7.15;2.60;;;15.10;51.00;;;;;;5029256;28;20383;-45
2021/04/25 09:26:58;;;;;;;9.30;2.60;;;13.90;51.60;;;;;;5030303;28;20049;-48
2021/04/25 09:29:44;;;;;;;5.72;2.15;;;13.40;53.10;;;;;;5029614;28;20026;-46
2021/04/25 09:32:19;;;;;;;5.28;2.00;;;13.20;54.30;;;;;;5028778;28;20647;-47
2021/04/25 09:34:44;;;;;;;3.08;1.88;;;13.20;54.70;;;;;;5028903;28;20025;-47
2021/04/25 09:37:19;;;;;;;6.70;2.30;;;14.30;54.60;;;;;;5030587;28;20036;-46
2021/04/25 09:40:03;;;;;;;4.13;2.38;;;16.50;52.00;;;;;;5029575;28;20061;-51
2021/04/25 09:42:31;;;;;;;4.63;2.67;;;17.60;46.10;;;;;;5029391;28;20040;-48
2021/04/25 09:44:56;;;;;;;5.72;2.65;;;18.10;48.80;;;;;;5029893;28;20028;-46
2021/04/25 09:47:32;;;;;;;2.78;2.20;;;20.10;45.30;;;;;;5028455;28;20034;-47
2021/04/25 09:50:00;;;;;;;7.13;2.38;;;20.30;41.30;;;;;;5029476;28;20104;-48
2021/04/25 09:52:34;;;;;;;5.45;2.33;;;19.20;41.80;;;;;;5029626;28;20033;-47
2021/04/25 09:55:15;;;;;;;7.00;2.38;;;19.60;42.70;;;;;;5028365;28;20490;-47
2021/04/25 09:57:41;;;;;;;7.30;2.97;;;19.00;42.20;;;;;;5026559;28;20021;-50
2021/04/25 10:00:08;;;;;;;6.32;2.30;;;17.90;43.60;;;;;;5029188;28;20051;-48
2021/04/25 10:03:00;;;;;;;8.80;2.40;;;16.80;46.20;;;;;;5027989;28;20487;-48
2021/04/25 10:05:28;;;;;;;4.50;2.80;;;15.20;48.00;;;;;;5023597;28;20061;-47
2021/04/25 10:07:53;;;;;;;8.10;3.78;;;14.30;50.50;;;;;;5027706;28;20025;-45
2021/04/25 10:10:19;;;;;;;8.93;3.65;;;14.10;53.10;;;;;;5029297;28;20391;-44
2021/04/25 10:12:48;;;;;;;9.77;3.55;;;13.80;53.20;;;;;;5029185;28;20488;-45
2021/04/25 10:15:15;;;;;;;6.28;2.90;;;14.70;54.30;;;;;;5028561;28;20025;-48
2021/04/25 10:17:46;;;;;;;6.40;3.42;;;15.30;52.20;;;;;;5028702;28;20422;-47
2021/04/25 10:20:13;;;;;;;5.18;3.30;;;15.30;49.50;;;;;;5028377;28;20033;-46
2021/04/25 10:22:41;;;;;;;8.90;3.08;;;14.50;50.70;;;;;;5028724;28;20021;-46
2021/04/25 10:25:09;;;;;;;8.18;3.35;;;13.90;51.30;;;;;;5029201;28;20112;-47
2021/04/25 10:27:36;;;;;;;6.22;3.25;;;13.10;52.00;;;;;;5027628;28;20026;-46
2021/04/25 10:30:04;;;;;;;5.22;2.88;;;14.00;50.70;;;;;;5028510;28;20042;-48
2021/04/25 10:32:30;;;;;;;9.40;2.97;;;15.90;50.90;;;;;;5028096;28;20037;-46
2021/04/25 10:35:19;;;;;;;9.02;3.40;;;17.40;45.30;;;;;;5029000;28;20025;-46
2021/04/25 10:37:46;;;;;;;3.72;2.42;;;18.30;42.80;;;;;;5026978;28;20044;-46
2021/04/25 10:40:32;;;;;;;5.78;2.92;;;19.20;42.00;;;;;;5028783;28;20052;-45
2021/04/25 10:43:05;;;;;;;5.57;2.90;;;19.10;39.50;;;;;;5017498;28;20067;-46
2021/04/25 10:45:35;;;;;;;4.85;2.50;;;20.10;39.20;;;;;;5022958;28;20433;-46
2021/04/25 10:48:40;;;;;;;6.75;2.50;;;20.60;36.90;;;;;;5027313;28;20029;-47
2021/04/25 10:51:08;;;;;;;4.15;2.08;;;21.90;38.20;;;;;;5027512;28;20045;-47
2021/04/25 10:53:37;;;;;;;6.05;2.35;;;22.80;35.20;;;;;;5027912;28;20026;-46
2021/04/25 10:56:12;;;;;;;6.00;2.47;;;22.10;33.50;;;;;;5028900;28;20394;-48
2021/04/25 10:58:38;;;;;;;6.10;2.35;;;20.00;37.50;;;;;;5027558;28;20037;-46
2021/04/25 11:01:03;;;;;;;5.50;2.55;;;19.60;38.20;;;;;;5028581;28;20561;-46
2021/04/25 11:03:32;;;;;;;6.18;2.95;;;18.40;39.40;;;;;;5027877;28;20442;-48
2021/04/25 11:05:57;;;;;;;6.10;2.60;;;17.30;38.50;;;;;;5028707;28;20244;-46
2021/04/25 11:08:29;;;;;;;4.60;2.60;;;16.40;40.30;;;;;;5027377;28;20052;-46
2021/04/25 11:10:56;;;;;;;4.78;2.17;;;15.30;42.60;;;;;;5026848;28;20087;-44
2021/04/25 11:13:36;;;;;;;5.80;2.40;;;14.60;44.20;;;;;;5008849;28;20093;-44
2021/04/25 11:16:05;;;;;;;6.72;2.30;;;13.90;44.90;;;;;;5011630;28;20079;-44
2021/04/25 11:18:52;;;;;;;6.45;2.40;;;13.60;46.90;;;;;;5027139;28;20036;-45
2021/04/25 11:21:34;;;;;;;5.32;1.92;;;13.80;48.30;;;;;;5027305;28;20225;-46
2021/04/25 11:24:05;;;;;;;4.57;2.10;;;14.10;47.60;;;;;;5027402;28;20029;-46
2021/04/25 11:26:33;;;;;;;4.88;1.85;;;14.40;46.00;;;;;;5027811;28;20557;-45
2021/04/25 11:29:02;;;;;;;3.13;1.80;;;16.10;44.10;;;;;;5026473;28;20087;-46
2021/04/25 11:31:46;;;;;;;5.32;2.45;;;17.80;41.00;;;;;;5028108;28;20026;-46
2021/04/25 11:34:28;;;;;;;2.38;1.67;;;18.90;40.80;;;;;;5027901;28;20394;-47
2021/04/25 11:36:55;;;;;;;6.32;2.42;;;18.40;39.90;;;;;;5027444;28;20445;-45
2021/04/25 11:39:23;;;;;;;3.53;2.35;;;17.30;39.40;;;;;;5027183;28;20153;-46
2021/04/25 11:41:50;;;;;;;4.38;1.77;;;16.90;40.40;;;;;;5020469;28;20037;-46
2021/04/25 11:44:29;;;;;;;5.18;2.15;;;16.10;41.40;;;;;;5015862;28;20049;-48
2021/04/25 11:46:56;;;;;;;2.25;1.80;;;15.50;42.70;;;;;;5026898;28;20059;-48
2021/04/25 11:49:36;;;;;;;5.63;1.60;;;15.00;42.60;;;;;;5024736;28;20037;-47
2021/04/25 11:52:13;;;;;;;4.63;2.15;;;14.50;44.00;;;;;;5026630;28;20036;-49
2021/04/25 11:54:40;;;;;;;4.03;1.52;;;13.90;44.30;;;;;;5027084;28;20087;-46
2021/04/25 11:57:19;;;;;;;4.32;2.40;;;15.10;44.70;;;;;;5026650;28;20025;-46
2021/04/25 11:59:51;;;;;;;2.47;1.42;;;17.10;40.30;;;;;;5025341;28;20410;-46
2021/04/25 12:02:17;;;;;;;6.47;1.63;;;17.20;42.70;;;;;;5026827;28;20549;-45
2021/04/25 12:04:48;;;;;;;3.80;1.60;;;17.20;39.70;;;;;;5026287;28;20116;-48
2021/04/25 12:07:29;;;;;;;;;;;17.20;41.10;;;;;;5026889;28;20033;-46
2021/04/25 12:09:54;;;;;;;;;;;16.90;41.70;;;;;;5026418;28;19909;-46
2021/04/25 12:12:20;;;;;;;4.78;1.55;;;16.70;41.30;;;;;;5026296;28;19923;-46
2021/04/25 12:14:46;;;;;;;4.70;1.60;;;16.10;40.50;;;;;;5025955;28;20036;-45
2021/04/25 12:17:13;;;;;;;2.97;1.80;;;15.40;41.40;;;;;;5024749;28;20017;-45
2021/04/25 12:19:39;;;;;;;2.65;1.20;;;14.90;41.10;;;;;;5026008;28;20064;-47
2021/04/25 12:22:05;;;;;;;5.22;1.77;;;14.50;42.50;;;;;;5026712;28;20053;-47
2021/04/25 12:24:31;;;;;;;2.78;1.58;;;15.10;43.80;;;;;;5025983;28;20030;-48
2021/04/25 12:26:57;;;;;;;3.17;1.60;;;15.70;40.90;;;;;;5026118;28;20037;-46
2021/04/25 12:29:35;;;;;;;3.22;1.55;;;15.60;41.90;;;;;;5025702;28;20350;-45
2021/04/25 12:32:02;;;;;;;2.65;1.52;;;15.30;40.70;;;;;;5006735;28;20441;-45
2021/04/25 12:34:31;;;;;;;3.55;1.67;;;14.80;40.30;;;;;;5006916;28;20109;-45
2021/04/25 12:36:59;;;;;;;3.30;1.33;;;14.30;41.00;;;;;;5025626;28;20049;-45
2021/04/25 12:39:42;;;;;;;3.50;1.30;;;14.30;42.80;;;;;;5025670;28;20617;-47
2021/04/25 12:42:21;;;;;;;1.90;1.25;;;14.40;42.30;;;;;;5028336;28;20287;-46
2021/04/25 12:44:46;;;;;;;3.45;1.35;;;14.10;42.30;;;;;;5029785;28;20041;-44
2021/04/25 12:47:13;;;;;;;3.28;1.30;;;14.00;43.10;;;;;;5030103;28;20029;-46
2021/04/25 12:49:40;;;;;;;2.65;1.20;;;14.70;45.80;;;;;;5028845;28;20052;-46
2021/04/25 12:52:08;;;;;;;2.22;1.45;;;15.10;44.90;;;;;;5027861;28;20368;-48